Time;durP1;ratioP1;P1;durP2;ratioP2;P2;SDS_P1;SDS_P2;PMS_P1;PMS_P2;Temp;Humidity;BMP_temperature;BMP_pressure;BME280_temperature;BME280_humidity;BME280_pressure;Samples;Min_cycle;Max_cycle;Signal;HPM_P1;HPM_P2
2022/11/22 06:03:39;;;;;;;22.38;6.25;;;;;;;4.71;100.00;99183.69;4990527;28;20599;-74
2022/11/22 06:06:06;;;;;;;13.90;6.72;;;;;;;4.71;100.00;99183.69;5003795;28;20038;-74
2022/11/22 06:08:33;;;;;;;20.98;7.38;;;;;;;4.71;100.00;99177.38;4982850;28;20033;-74
2022/11/22 06:11:06;;;;;;;16.58;6.18;;;;;;;4.66;100.00;99184.06;5002215;28;20407;-74
2022/11/22 06:13:36;;;;;;;14.75;6.22;;;;;;;4.63;100.00;99180.03;5044903;23;20057;-74
2022/11/22 06:16:03;;;;;;;17.15;5.88;;;;;;;4.59;100.00;99176.44;4995244;28;21445;-74
2022/11/22 06:18:28;;;;;;;16.05;5.15;;;;;;;4.57;100.00;99169.69;4999819;28;20038;-74
2022/11/22 06:21:01;;;;;;;12.07;5.90;;;;;;;4.57;100.00;99170.47;4998930;28;20032;-74
2022/11/22 06:23:27;;;;;;;15.82;5.07;;;;;;;4.52;100.00;99173.59;5002252;28;20038;-74
2022/11/22 06:26:13;;;;;;;11.77;4.32;;;;;;;4.54;100.00;99168.47;4999813;28;20484;-74
2022/11/22 06:28:39;;;;;;;14.82;6.55;;;;;;;4.47;100.00;99171.97;5002325;28;20488;-74
2022/11/22 06:31:04;;;;;;;9.80;4.53;;;;;;;4.49;100.00;99182.69;4997972;28;20033;-74
2022/11/22 06:33:30;;;;;;;14.55;4.28;;;;;;;4.42;100.00;99193.66;4997387;28;20029;-74
2022/11/22 06:36:22;;;;;;;34.28;6.05;;;;;;;4.44;100.00;99199.63;4999455;28;20068;-73
2022/11/22 06:38:48;;;;;;;15.90;5.03;;;;;;;4.47;100.00;99198.88;4994939;28;20107;-74
2022/11/22 06:41:19;;;;;;;13.68;5.00;;;;;;;4.50;100.00;99205.63;4997676;28;20034;-74
2022/11/22 06:43:47;;;;;;;11.10;4.85;;;;;;;4.48;100.00;99206.78;5001038;28;20479;-74
2022/11/22 06:46:13;;;;;;;14.80;4.32;;;;;;;4.43;100.00;99211.88;5002950;28;20069;-74
2022/11/22 06:48:40;;;;;;;17.65;5.25;;;;;;;4.46;100.00;99211.13;4997577;28;20033;-74
2022/11/22 06:51:17;;;;;;;18.00;5.75;;;;;;;4.38;100.00;99210.22;5000683;28;20038;-74
2022/11/22 06:53:42;;;;;;;11.75;4.28;;;;;;;4.42;100.00;99213.06;5011150;28;20854;-74
2022/11/22 06:56:11;;;;;;;15.98;4.20;;;;;;;4.40;100.00;99210.66;5000344;28;20033;-74
2022/11/22 06:58:37;;;;;;;15.20;5.50;;;;;;;4.41;100.00;99215.03;4993432;28;20448;-74
2022/11/22 07:01:05;;;;;;;14.55;6.40;;;;;;;4.41;100.00;99219.78;4987693;28;20034;-74
2022/11/22 07:03:31;;;;;;;11.55;4.05;;;;;;;4.28;100.00;99219.22;4986684;28;20045;-74
2022/11/22 07:05:56;;;;;;;14.95;4.05;;;;;;;4.34;100.00;99227.97;4996535;28;20420;-74
2022/11/22 07:08:22;;;;;;;16.40;5.03;;;;;;;4.35;100.00;99230.38;4982275;28;20512;-74
2022/11/22 07:10:48;;;;;;;17.23;4.55;;;;;;;4.35;100.00;99229.59;5005177;28;20125;-74
2022/11/22 07:13:13;;;;;;;12.55;5.47;;;;;;;4.31;100.00;99224.00;4973306;28;20056;-74
2022/11/22 07:15:38;;;;;;;13.15;4.50;;;;;;;4.31;100.00;99228.75;4982359;28;20774;-74
2022/11/22 07:18:04;;;;;;;14.10;4.00;;;;;;;4.32;100.00;99225.59;4978213;28;20041;-74
2022/11/22 07:20:32;;;;;;;14.15;4.47;;;;;;;4.36;100.00;99231.19;4977952;28;20038;-74
2022/11/22 07:22:58;;;;;;;14.57;4.47;;;;;;;4.30;100.00;99227.13;4978312;28;20104;-73
2022/11/22 07:25:23;;;;;;;11.65;4.57;;;;;;;4.32;100.00;99227.56;4979305;28;20034;-73
2022/11/22 07:27:51;;;;;;;25.60;4.82;;;;;;;4.36;100.00;99239.47;4980509;28;20033;-73
2022/11/22 07:30:17;;;;;;;13.80;4.25;;;;;;;4.33;100.00;99246.59;4985263;28;20037;-74
2022/11/22 07:32:46;;;;;;;13.27;4.85;;;;;;;4.41;100.00;99244.72;4978045;28;20061;-72
2022/11/22 07:35:12;;;;;;;11.77;4.65;;;;;;;4.28;100.00;99246.91;4990742;28;20037;-73
2022/11/22 07:37:37;;;;;;;13.48;3.42;;;;;;;4.31;100.00;99232.31;4992161;28;20025;-75
2022/11/22 07:40:02;;;;;;;9.00;3.30;;;;;;;4.42;100.00;99241.53;4981089;28;20037;-74
2022/11/22 07:42:28;;;;;;;9.48;4.10;;;;;;;4.33;100.00;99249.34;4985708;28;20121;-73
2022/11/22 07:44:53;;;;;;;16.75;5.63;;;;;;;4.38;100.00;99239.91;4974692;28;20605;-72
2022/11/22 07:47:18;;;;;;;10.82;3.83;;;;;;;4.42;100.00;99244.31;4984425;28;21245;-73
2022/11/22 07:49:44;;;;;;;7.53;4.03;;;;;;;4.39;100.00;99244.28;4991311;28;20030;-74
2022/11/22 07:52:09;;;;;;;14.15;4.68;;;;;;;4.40;100.00;99238.34;4990854;28;21533;-73
2022/11/22 07:54:34;;;;;;;12.20;4.60;;;;;;;4.39;100.00;99236.78;4992459;28;20022;-74
2022/11/22 07:57:00;;;;;;;19.77;5.30;;;;;;;4.34;100.00;99237.09;4986831;28;20145;-73
2022/11/22 07:59:25;;;;;;;14.38;4.78;;;;;;;4.33;100.00;99235.50;4993049;28;20052;-74
2022/11/22 08:01:50;;;;;;;14.57;5.53;;;;;;;4.25;100.00;99251.22;4993636;28;20025;-74
2022/11/22 08:04:16;;;;;;;12.10;3.83;;;;;;;4.33;100.00;99259.63;4990110;28;20065;-74
2022/11/22 08:06:41;;;;;;;15.00;4.75;;;;;;;4.35;100.00;99251.75;4988992;28;20036;-73
2022/11/22 08:09:06;;;;;;;13.90;3.78;;;;;;;4.30;100.00;99260.38;4988808;28;20046;-73
2022/11/22 08:11:32;;;;;;;12.15;3.80;;;;;;;4.41;100.00;99267.66;4984956;28;20033;-74
2022/11/22 08:13:57;;;;;;;13.45;4.00;;;;;;;4.37;100.00;99266.03;4987487;28;20056;-74
2022/11/22 08:16:22;;;;;;;19.27;5.13;;;;;;;4.56;100.00;99268.66;4989830;28;20029;-74
2022/11/22 08:18:49;;;;;;;18.65;4.63;;;;;;;4.50;100.00;99264.59;4992879;28;20022;-74
2022/11/22 08:21:16;;;;;;;11.07;4.00;;;;;;;4.57;100.00;99281.31;4996692;28;20040;-74
2022/11/22 08:23:42;;;;;;;14.70;5.05;;;;;;;4.59;100.00;99278.97;4991711;28;20033;-74
2022/11/22 08:26:13;;;;;;;9.95;5.28;;;;;;;4.59;100.00;99281.72;4995548;28;20477;-73
2022/11/22 08:28:40;;;;;;;15.63;4.78;;;;;;;4.59;100.00;99276.19;4995622;28;20045;-75
2022/11/22 08:31:12;;;;;;;14.32;6.00;;;;;;;4.57;100.00;99286.06;4994724;28;20046;-73
2022/11/22 08:33:38;;;;;;;21.25;4.63;;;;;;;4.61;100.00;99276.63;5006476;28;20119;-75
2022/11/22 08:36:04;;;;;;;18.73;4.70;;;;;;;4.65;100.00;99284.97;4993360;28;20026;-74
2022/11/22 08:38:29;;;;;;;13.02;4.25;;;;;;;4.65;100.00;99299.63;4993945;28;20044;-74
2022/11/22 08:40:55;;;;;;;14.77;5.57;;;;;;;4.62;100.00;99281.00;4996449;28;20168;-74
2022/11/22 08:43:20;;;;;;;10.52;4.68;;;;;;;4.62;100.00;99292.09;5000191;28;20513;-74
2022/11/22 08:45:48;;;;;;;18.42;5.38;;;;;;;4.73;100.00;99288.66;5000581;28;20128;-73
2022/11/22 08:48:14;;;;;;;9.55;4.78;;;;;;;4.81;100.00;99290.34;4993673;28;20084;-74
2022/11/22 08:50:39;;;;;;;15.60;5.38;;;;;;;4.75;100.00;99286.31;4996348;28;20034;-76
2022/11/22 08:53:05;;;;;;;15.75;5.65;;;;;;;4.77;100.00;99283.94;4992680;28;20061;-74
2022/11/22 08:55:30;;;;;;;11.38;4.72;;;;;;;4.77;100.00;99278.41;5003364;28;20460;-75
2022/11/22 08:57:59;;;;;;;8.02;4.70;;;;;;;4.83;100.00;99282.44;4994720;28;20474;-74
2022/11/22 09:00:24;;;;;;;16.30;4.63;;;;;;;4.78;100.00;99291.88;4990326;28;20647;-74
2022/11/22 09:02:50;;;;;;;12.80;4.38;;;;;;;4.78;100.00;99280.78;4995055;28;20115;-74
2022/11/22 09:05:15;;;;;;;19.50;4.25;;;;;;;4.81;100.00;99273.69;4997708;28;20030;-75
2022/11/22 09:07:40;;;;;;;13.65;4.20;;;;;;;4.81;100.00;99279.25;5000944;28;20169;-74
2022/11/22 09:10:07;;;;;;;11.65;4.60;;;;;;;4.90;100.00;99288.06;4994894;28;20025;-74
2022/11/22 09:12:32;;;;;;;15.13;4.28;;;;;;;4.89;100.00;99280.91;4994547;28;20049;-74
2022/11/22 09:14:58;;;;;;;18.38;4.50;;;;;;;5.01;100.00;99288.97;4998733;28;20743;-74
2022/11/22 09:17:23;;;;;;;11.20;3.60;;;;;;;5.01;100.00;99288.97;4993915;28;20072;-74
2022/11/22 09:19:48;;;;;;;20.25;4.60;;;;;;;5.05;100.00;99295.34;4999051;28;20034;-74
2022/11/22 09:22:14;;;;;;;12.75;3.92;;;;;;;5.08;100.00;99302.94;4995345;28;20100;-74
2022/11/22 09:24:39;;;;;;;8.52;4.18;;;;;;;5.11;100.00;99304.13;4995219;28;20116;-74
2022/11/22 09:27:05;;;;;;;10.05;3.80;;;;;;;5.13;100.00;99301.00;5001933;28;20044;-74
2022/11/22 09:29:30;;;;;;;15.07;4.03;;;;;;;5.21;100.00;99313.75;5005680;28;20030;-74
2022/11/22 09:31:56;;;;;;;11.27;4.82;;;;;;;5.27;100.00;99312.22;5003679;28;20068;-74
2022/11/22 09:34:21;;;;;;;17.10;4.53;;;;;;;5.25;100.00;99306.28;4999533;28;20037;-74
2022/11/22 09:36:46;;;;;;;12.65;3.72;;;;;;;5.31;100.00;99318.59;5009069;28;20050;-74
2022/11/22 09:39:12;;;;;;;10.30;3.90;;;;;;;5.33;100.00;99321.00;4998530;28;20043;-73
2022/11/22 09:42:03;;;;;;;16.40;4.63;;;;;;;5.30;100.00;99314.25;4997002;28;20034;-74
2022/11/22 09:44:41;;;;;;;7.70;3.78;;;;;;;5.33;100.00;99315.47;4995512;28;20131;-74
2022/11/22 09:47:31;;;;;;;14.30;4.68;;;;;;;5.39;100.00;99320.28;4998969;28;20380;-74
2022/11/22 09:50:18;;;;;;;16.35;4.07;;;;;;;5.42;100.00;99319.53;5002180;28;20026;-74
2022/11/22 09:52:50;;;;;;;14.40;3.53;;;;;;;5.38;100.00;99310.38;4997961;28;20084;-74
2022/11/22 09:55:22;;;;;;;12.38;3.35;;;;;;;5.45;100.00;99307.66;4995444;28;20026;-74
2022/11/22 09:58:01;;;;;;;10.18;3.38;;;;;;;5.48;100.00;99318.00;5001469;28;20453;-73
2022/11/22 10:00:27;;;;;;;13.88;3.80;;;;;;;5.40;100.00;99321.09;4999487;28;20057;-77
2022/11/22 10:03:09;;;;;;;13.32;4.13;;;;;;;5.41;100.00;99320.69;4992570;28;20397;-75
2022/11/22 10:05:52;;;;;;;12.27;4.30;;;;;;;5.40;100.00;99315.53;4995443;28;20504;-74
2022/11/22 10:08:42;;;;;;;12.00;4.53;;;;;;;5.45;100.00;99335.41;4997639;28;20396;-77
2022/11/22 10:11:39;;;;;;;11.13;3.17;;;;;;;5.45;100.00;99332.63;4998290;28;20030;-75
2022/11/22 10:14:16;;;;;;;14.57;5.15;;;;;;;5.42;100.00;99336.19;4999230;28;20049;-74
2022/11/22 10:16:55;;;;;;;13.18;4.57;;;;;;;5.49;100.00;99330.69;4998128;28;20042;-74
2022/11/22 10:19:55;;;;;;;10.57;3.38;;;;;;;5.53;100.00;99335.50;4993822;28;20038;-74
2022/11/22 10:22:20;;;;;;;11.85;3.90;;;;;;;5.59;100.00;99337.53;4984725;28;20060;-74
2022/11/22 10:24:46;;;;;;;12.90;3.85;;;;;;;5.59;100.00;99333.97;4993647;28;20405;-74
2022/11/22 10:27:13;;;;;;;12.98;3.47;;;;;;;5.67;100.00;99338.38;5001463;28;20033;-74
2022/11/22 10:30:12;;;;;;;8.57;2.80;;;;;;;5.69;100.00;99342.41;4992746;28;20034;-74
2022/11/22 10:33:14;;;;;;;10.80;3.55;;;;;;;5.66;100.00;99328.47;4991435;28;20033;-73
2022/11/22 10:35:42;;;;;;;13.40;3.75;;;;;;;5.81;100.00;99330.19;4993812;28;20026;-74
2022/11/22 10:39:02;;;;;;;14.18;2.95;;;;;;;5.78;100.00;99330.97;4995166;28;20046;-74
2022/11/22 10:41:37;;;;;;;12.00;3.20;;;;;;;5.86;100.00;99335.41;4971868;28;20037;-74
2022/11/22 10:44:30;;;;;;;10.60;3.40;;;;;;;5.87;100.00;99334.22;4999060;28;20037;-74
2022/11/22 10:47:34;;;;;;;6.93;3.15;;;;;;;5.80;100.00;99327.81;4997154;28;20067;-74
2022/11/22 10:50:18;;;;;;;10.15;4.05;;;;;;;5.90;100.00;99327.91;5002036;28;20092;-73
2022/11/22 10:53:04;;;;;;;10.82;2.97;;;;;;;5.90;100.00;99325.13;4998902;28;20034;-73
2022/11/22 10:55:48;;;;;;;15.48;3.42;;;;;;;5.96;100.00;99324.78;4999705;28;20473;-74
2022/11/22 10:59:01;;;;;;;9.65;3.40;;;;;;;6.04;100.00;99304.22;4999079;28;20504;-74
2022/11/22 11:02:04;;;;;;;14.90;3.30;;;;;;;6.11;100.00;99326.47;4971416;28;20056;-73
2022/11/22 11:04:37;;;;;;;6.80;2.90;;;;;;;6.13;100.00;99332.44;4995359;28;20034;-74
2022/11/22 11:07:04;;;;;;;8.40;3.03;;;;;;;6.08;100.00;99328.06;4999052;28;20091;-73
2022/11/22 11:09:42;;;;;;;19.15;3.60;;;;;;;6.12;100.00;99316.97;4999608;28;20065;-73
2022/11/22 11:12:50;;;;;;;17.80;3.38;;;;;;;6.20;100.00;99307.50;4996619;28;20080;-74
2022/11/22 11:15:23;;;;;;;11.25;3.17;;;;;;;6.20;100.00;99301.97;5000320;28;20030;-73
2022/11/22 11:17:54;;;;;;;11.27;4.50;;;;;;;6.18;100.00;99301.53;4993004;28;20029;-73
2022/11/22 11:20:36;;;;;;;9.55;3.35;;;;;;;6.22;100.00;99298.78;4996156;28;20694;-74
2022/11/22 11:23:01;;;;;;;14.98;3.60;;;;;;;6.25;100.00;99298.81;4995605;28;20033;-75
2022/11/22 11:25:39;;;;;;;6.20;2.72;;;;;;;6.27;100.00;99302.00;5001166;28;20079;-73
2022/11/22 11:28:26;;;;;;;6.80;3.00;;;;;;;6.25;100.00;99298.81;4994592;28;20029;-75
2022/11/22 11:30:54;;;;;;;7.45;2.80;;;;;;;6.31;100.00;99302.81;4998868;28;20041;-75
2022/11/22 11:33:27;;;;;;;9.18;3.47;;;;;;;6.27;100.00;99301.19;4995152;28;20500;-75
2022/11/22 11:36:11;;;;;;;9.38;3.45;;;;;;;6.31;100.00;99291.69;4994949;28;20109;-75
2022/11/22 11:38:49;;;;;;;8.00;3.47;;;;;;;6.31;100.00;99291.69;4997084;28;20369;-75
2022/11/22 11:41:32;;;;;;;12.07;2.72;;;;;;;6.36;100.00;99293.31;5000343;28;20519;-75
2022/11/22 11:44:03;;;;;;;12.65;3.88;;;;;;;6.33;100.00;99304.41;4999044;28;20038;-75
2022/11/22 11:46:47;;;;;;;10.13;2.88;;;;;;;6.27;100.00;99295.66;4992972;28;20120;-76
2022/11/22 11:49:13;;;;;;;10.70;4.25;;;;;;;6.32;100.00;99298.03;4993505;28;20032;-75
2022/11/22 11:51:45;;;;;;;8.85;2.80;;;;;;;6.33;100.00;99298.88;4996369;28;20061;-75
2022/11/22 11:54:20;;;;;;;9.68;3.05;;;;;;;6.33;100.00;99309.97;4995172;28;20045;-75
2022/11/22 11:56:54;;;;;;;12.25;3.42;;;;;;;6.36;100.00;99304.41;4995069;28;20036;-75
2022/11/22 11:59:24;;;;;;;10.10;2.45;;;;;;;6.29;100.00;99299.63;4996519;28;20053;-75
2022/11/22 12:02:18;;;;;;;7.55;3.05;;;;;;;6.43;100.00;99300.88;4995240;28;20596;-75
2022/11/22 12:04:58;;;;;;;;;;;;;;;6.42;100.00;99296.53;4992511;28;20077;-73
2022/11/22 12:07:25;;;;;;;10.23;3.47;;;;;;;6.41;100.00;99297.69;4993007;28;19913;-75
2022/11/22 12:09:52;;;;;;;7.70;2.95;;;;;;;6.41;100.00;99292.97;4993883;28;21321;-75
2022/11/22 12:12:37;;;;;;;7.97;2.58;;;;;;;6.41;100.00;99290.19;4993857;28;20060;-75
2022/11/22 12:15:13;;;;;;;14.02;4.43;;;;;;;6.47;100.00;99287.81;5002813;28;20036;-75
2022/11/22 12:17:48;;;;;;;12.45;2.90;;;;;;;6.47;100.00;99293.38;4996080;28;20080;-75
2022/11/22 12:20:23;;;;;;;10.45;2.50;;;;;;;6.45;100.00;99285.44;4998295;28;20041;-74
2022/11/22 12:23:16;;;;;;;10.73;4.38;;;;;;;6.47;100.00;99285.84;4995511;28;20188;-74
2022/11/22 12:25:44;;;;;;;10.95;2.58;;;;;;;6.35;100.00;99288.16;4997743;28;20041;-74
2022/11/22 12:28:22;;;;;;;8.57;3.13;;;;;;;6.42;100.00;99283.41;4993618;28;20033;-75
2022/11/22 12:31:12;;;;;;;8.57;2.60;;;;;;;6.44;100.00;99283.03;4999386;28;20124;-74
2022/11/22 12:33:53;;;;;;;9.45;3.80;;;;;;;6.46;100.00;99287.00;4996220;28;20520;-74
2022/11/22 12:36:28;;;;;;;14.88;4.43;;;;;;;6.51;100.00;99283.06;4995902;28;20044;-74
2022/11/22 12:38:55;;;;;;;6.13;3.10;;;;;;;6.49;100.00;99283.47;4997807;28;20029;-74
2022/11/22 12:41:26;;;;;;;9.07;2.65;;;;;;;6.56;100.00;99284.69;4994480;28;20192;-74
2022/11/22 12:44:01;;;;;;;9.18;2.53;;;;;;;6.54;100.00;99281.50;4997145;28;20116;-74
2022/11/22 12:46:36;;;;;;;6.82;3.17;;;;;;;6.56;100.00;99291.06;4998289;28;20021;-74
2022/11/22 12:49:26;;;;;;;8.65;2.17;;;;;;;6.60;100.00;99286.31;4997763;28;20362;-74
2022/11/22 12:52:02;;;;;;;5.72;2.42;;;;;;;6.60;100.00;99285.47;4991918;28;20053;-74
2022/11/22 12:54:58;;;;;;;4.78;2.38;;;;;;;6.72;100.00;99288.75;4999498;28;20029;-74
2022/11/22 12:57:34;;;;;;;5.25;2.25;;;;;;;6.57;100.00;99292.63;4986179;28;20038;-74
2022/11/22 13:00:08;;;;;;;6.70;2.15;;;;;;;6.45;100.00;99292.97;4999396;28;20108;-75
2022/11/22 13:02:41;;;;;;;8.23;2.20;;;;;;;6.45;100.00;99295.72;4996355;28;20087;-74
2022/11/22 13:05:19;;;;;;;8.65;3.00;;;;;;;6.44;100.00;99294.16;4999966;28;20038;-74
2022/11/22 13:08:13;;;;;;;11.15;3.50;;;;;;;6.41;100.00;99300.47;4993605;28;20036;-75
2022/11/22 13:10:49;;;;;;;5.85;2.55;;;;;;;6.42;100.00;99300.09;5002069;28;20018;-76
2022/11/22 13:13:34;;;;;;;4.22;1.95;;;;;;;6.53;100.00;99294.59;4996918;28;20052;-75
2022/11/22 13:16:04;;;;;;;4.70;1.83;;;;;;;6.47;100.00;99296.97;4998938;28;20385;-74
2022/11/22 13:18:33;;;;;;;5.15;2.25;;;;;;;6.56;100.00;99293.03;4996334;28;20120;-75
2022/11/22 13:21:14;;;;;;;6.30;2.08;;;;;;;6.46;100.00;99287.00;4993571;28;20108;-75
2022/11/22 13:24:15;;;;;;;6.15;2.40;;;;;;;6.58;100.00;99290.63;4984242;28;20042;-75
2022/11/22 13:26:59;;;;;;;7.65;2.10;;;;;;;6.50;100.00;99295.38;4995321;28;20034;-74
2022/11/22 13:29:27;;;;;;;6.03;1.75;;;;;;;6.48;100.00;99294.97;4999050;28;20432;-75
2022/11/22 13:32:00;;;;;;;6.72;2.08;;;;;;;6.51;100.00;99291.41;4999190;28;20477;-75
2022/11/22 13:34:27;;;;;;;8.15;2.53;;;;;;;6.60;100.00;99291.88;4994044;28;20501;-75
2022/11/22 13:36:52;;;;;;;5.28;2.13;;;;;;;6.50;100.00;99289.81;4995588;28;20049;-75
2022/11/22 13:39:22;;;;;;;5.80;1.83;;;;;;;6.59;100.00;99286.69;4998235;28;20659;-75
2022/11/22 13:41:56;;;;;;;7.35;3.47;;;;;;;6.52;100.00;99276.34;5000124;28;20034;-74
2022/11/22 13:44:21;;;;;;;6.55;2.35;;;;;;;6.57;100.00;99289.06;4994360;28;20049;-75
2022/11/22 13:47:03;;;;;;;3.70;2.03;;;;;;;6.56;100.00;99288.25;4993694;28;20453;-75
2022/11/22 13:49:41;;;;;;;4.53;1.88;;;;;;;6.51;100.00;99294.19;4998524;28;20026;-75
2022/11/22 13:52:15;;;;;;;5.13;1.60;;;;;;;6.49;100.00;99300.16;4994765;28;20520;-74
2022/11/22 13:54:47;;;;;;;4.18;1.60;;;;;;;6.56;100.00;99299.38;4996395;28;20041;-76
2022/11/22 13:57:35;;;;;;;6.70;2.85;;;;;;;6.54;100.00;99290.63;4995906;28;20469;-75
2022/11/22 14:00:15;;;;;;;6.10;2.10;;;;;;;6.50;100.00;99292.59;4996828;28;20034;-75
2022/11/22 14:02:45;;;;;;;7.10;1.95;;;;;;;6.47;100.00;99285.03;4990793;28;20038;-75
2022/11/22 14:05:36;;;;;;;2.90;2.17;;;;;;;6.53;100.00;99286.25;4990343;28;20413;-74
2022/11/22 14:08:03;;;;;;;9.00;2.08;;;;;;;6.47;100.00;99287.81;4996374;28;20037;-74
2022/11/22 14:10:36;;;;;;;5.35;2.10;;;;;;;6.42;100.00;99286.19;4989989;28;20379;-75
2022/11/22 14:13:23;;;;;;;3.30;1.50;;;;;;;6.38;100.00;99285.38;4992656;28;20049;-75
2022/11/22 14:15:55;;;;;;;5.65;2.17;;;;;;;6.94;100.00;99283.25;4992591;28;20057;-74
2022/11/22 14:18:39;;;;;;;8.15;2.00;;;;;;;6.62;100.00;99292.28;4987703;28;20511;-74
2022/11/22 14:21:16;;;;;;;4.07;1.88;;;;;;;6.65;100.00;99280.34;4993076;28;20604;-74
2022/11/22 14:23:44;;;;;;;3.13;2.10;;;;;;;6.50;100.00;99281.47;5000893;28;20092;-74
2022/11/22 14:26:21;;;;;;;7.07;1.75;;;;;;;6.54;100.00;99281.50;5001432;28;20046;-74
2022/11/22 14:29:13;;;;;;;13.80;3.63;;;;;;;6.54;100.00;99271.19;4998446;28;20503;-74
2022/11/22 14:31:39;;;;;;;6.80;2.78;;;;;;;6.45;100.00;99268.75;4997469;28;20120;-74
2022/11/22 14:34:14;;;;;;;6.15;1.90;;;;;;;6.50;100.00;99264.81;4999208;28;20700;-74
2022/11/22 14:36:40;;;;;;;6.00;1.40;;;;;;;6.45;100.00;99262.38;5010399;28;20555;-73
2022/11/22 14:39:44;;;;;;;2.58;1.95;;;;;;;6.50;100.00;99267.59;4994833;28;20104;-74
2022/11/22 14:42:34;;;;;;;3.38;2.00;;;;;;;6.53;100.00;99263.22;4965893;28;20125;-74
2022/11/22 14:45:02;;;;;;;7.97;2.08;;;;;;;6.50;100.00;99260.03;4997466;28;20030;-74
2022/11/22 14:47:29;;;;;;;4.53;2.00;;;;;;;6.54;100.00;99265.63;4990831;28;20064;-73
2022/11/22 14:49:55;;;;;;;5.07;2.00;;;;;;;6.54;100.00;99260.06;5002754;28;20493;-74
2022/11/22 14:52:28;;;;;;;9.10;3.00;;;;;;;6.48;100.00;99272.75;4999451;28;20536;-74
2022/11/22 14:55:04;;;;;;;6.07;1.85;;;;;;;6.49;100.00;99266.78;5012467;28;20047;-74
2022/11/22 14:57:33;;;;;;;2.80;2.40;;;;;;;6.49;100.00;99268.75;4992164;28;20073;-74
2022/11/22 15:00:04;;;;;;;7.30;2.22;;;;;;;6.57;100.00;99280.72;4995398;28;20509;-74
2022/11/22 15:02:54;;;;;;;6.43;1.67;;;;;;;6.60;100.00;99269.63;4995634;28;20069;-74
2022/11/22 15:05:56;;;;;;;5.88;1.85;;;;;;;6.58;100.00;99276.75;4996174;28;20080;-74
2022/11/22 15:08:29;;;;;;;4.22;2.10;;;;;;;6.56;100.00;99274.38;4996984;28;20456;-74
2022/11/22 15:11:26;;;;;;;4.82;2.67;;;;;;;6.50;100.00;99264.81;4998153;28;20036;-74
2022/11/22 15:14:24;;;;;;;6.50;1.90;;;;;;;6.51;100.00;99271.94;4995607;28;20128;-74
2022/11/22 15:16:53;;;;;;;4.95;1.70;;;;;;;6.53;100.00;99269.56;4994982;28;20038;-74
2022/11/22 15:19:36;;;;;;;7.05;2.20;;;;;;;6.59;100.00;99270.00;4997404;28;20524;-74
2022/11/22 15:22:06;;;;;;;2.70;1.48;;;;;;;6.59;100.00;99270.78;4997496;28;20161;-74
2022/11/22 15:24:31;;;;;;;6.15;1.58;;;;;;;6.55;100.00;99269.97;4991415;28;20044;-74
2022/11/22 15:26:57;;;;;;;3.42;2.20;;;;;;;6.71;100.00;99264.88;4987018;28;20026;-74
2022/11/22 15:29:22;;;;;;;3.35;1.35;;;;;;;6.70;100.00;99277.22;4988099;28;20473;-74
2022/11/22 15:31:49;;;;;;;3.40;2.08;;;;;;;6.56;100.00;99277.16;4993916;28;20061;-74
2022/11/22 15:34:19;;;;;;;6.13;2.95;;;;;;;6.69;100.00;99283.16;4993970;28;20518;-74
2022/11/22 15:36:51;;;;;;;3.03;1.95;;;;;;;6.78;100.00;99280.81;4997328;28;20030;-75
2022/11/22 15:39:17;;;;;;;10.68;4.75;;;;;;;6.73;100.00;99278.41;5002067;28;20030;-75
2022/11/22 15:41:48;;;;;;;3.58;2.15;;;;;;;6.74;100.00;99281.97;5004087;28;20554;-75
2022/11/22 15:44:14;;;;;;;2.92;1.55;;;;;;;6.75;100.00;99280.81;4999552;28;20022;-75
2022/11/22 15:46:42;;;;;;;3.78;1.70;;;;;;;6.79;100.00;99289.94;4999061;28;20123;-75
2022/11/22 15:49:13;;;;;;;5.28;1.73;;;;;;;7.12;100.00;99289.66;4990597;28;20497;-74
2022/11/22 15:51:57;;;;;;;3.13;1.23;;;;;;;6.69;100.00;99294.28;4995153;28;20493;-74
2022/11/22 15:54:24;;;;;;;4.28;2.03;;;;;;;6.64;100.00;99295.47;4993269;28;20037;-74
2022/11/22 15:56:56;;;;;;;5.88;1.88;;;;;;;6.61;100.00;99301.78;5018184;28;20033;-74
2022/11/22 15:59:38;;;;;;;2.50;1.63;;;;;;;6.61;100.00;99304.56;4998826;28;20068;-74
2022/11/22 16:02:16;;;;;;;4.55;1.88;;;;;;;6.59;100.00;99301.38;4995773;28;20872;-74
2022/11/22 16:04:51;;;;;;;5.88;2.97;;;;;;;6.63;100.00;99299.41;4999398;28;20045;-74
2022/11/22 16:07:46;;;;;;;3.85;1.48;;;;;;;6.61;100.00;99304.56;5001359;28;20506;-74
2022/11/22 16:10:19;;;;;;;3.45;1.60;;;;;;;6.56;100.00;99296.59;4988653;28;20044;-73
2022/11/22 16:12:45;;;;;;;5.07;1.85;;;;;;;6.89;100.00;99292.78;4999516;28;20037;-74
2022/11/22 16:15:28;;;;;;;4.57;1.80;;;;;;;6.81;100.00;99290.34;4987443;28;20027;-74
2022/11/22 16:18:06;;;;;;;8.50;5.15;;;;;;;6.74;100.00;99293.91;5001228;28;20409;-73
2022/11/22 16:20:32;;;;;;;8.25;2.92;;;;;;;6.73;100.00;99295.09;5004408;28;20128;-73
2022/11/22 16:23:13;;;;;;;4.53;3.00;;;;;;;6.70;100.00;99295.88;4981670;28;20026;-74
2022/11/22 16:25:44;;;;;;;6.38;3.72;;;;;;;6.71;100.00;99297.47;4986422;28;20541;-74
2022/11/22 16:28:29;;;;;;;13.85;7.43;;;;;;;6.75;100.00;99298.28;4996356;28;20022;-74
2022/11/22 16:30:58;;;;;;;5.22;2.63;;;;;;;6.77;100.00;99295.09;4984276;28;20029;-74
2022/11/22 16:33:24;;;;;;;5.80;3.30;;;;;;;6.72;100.00;99291.53;4994678;28;20060;-74
2022/11/22 16:35:57;;;;;;;14.18;8.02;;;;;;;6.80;100.00;99288.75;4999188;28;20124;-74
2022/11/22 16:38:23;;;;;;;18.48;10.57;;;;;;;6.77;100.00;99289.53;5003040;28;20167;-74
2022/11/22 16:40:49;;;;;;;9.95;6.70;;;;;;;6.72;100.00;99290.72;5005063;28;20034;-74
2022/11/22 16:43:19;;;;;;;17.48;11.75;;;;;;;6.75;100.00;99286.38;4999741;28;20040;-74
2022/11/22 16:45:45;;;;;;;11.95;8.68;;;;;;;6.76;100.00;99282.38;5000021;28;20025;-73
2022/11/22 16:48:13;;;;;;;4.60;3.08;;;;;;;6.72;100.00;99285.97;5003413;28;20176;-73
2022/11/22 16:50:39;;;;;;;4.57;2.50;;;;;;;7.04;100.00;99276.94;4992694;28;20041;-75
2022/11/22 16:53:10;;;;;;;5.60;4.97;;;;;;;7.02;100.00;99284.06;4997441;28;20113;-74
2022/11/22 16:55:35;;;;;;;5.72;4.72;;;;;;;6.89;100.00;99281.66;4997321;28;20022;-74
2022/11/22 16:58:11;;;;;;;4.70;4.30;;;;;;;6.82;100.00;99283.59;5001431;28;20030;-74
2022/11/22 17:00:37;;;;;;;6.40;4.15;;;;;;;6.85;100.00;99291.16;5002673;28;20091;-74
2022/11/22 17:03:02;;;;;;;5.13;2.70;;;;;;;6.84;100.00;99292.34;5000149;28;20377;-74
2022/11/22 17:05:28;;;;;;;4.82;2.50;;;;;;;7.26;100.00;99293.69;4998929;28;20037;-76
2022/11/22 17:07:53;;;;;;;3.90;2.88;;;;;;;6.95;100.00;99284.84;4968955;28;20471;-74
2022/11/22 17:10:18;;;;;;;8.23;2.83;;;;;;;6.89;100.00;99284.44;4991761;28;20029;-74
2022/11/22 17:12:43;;;;;;;3.17;2.85;;;;;;;6.92;100.00;99288.41;4960585;28;20472;-74
2022/11/22 17:15:12;;;;;;;9.55;8.00;;;;;;;6.95;100.00;99295.19;4983156;28;20117;-74
2022/11/22 17:17:37;;;;;;;5.47;4.97;;;;;;;6.88;100.00;99295.94;4984583;28;20497;-74
2022/11/22 17:20:03;;;;;;;6.85;5.85;;;;;;;6.83;100.00;99299.09;4992040;28;20042;-74
2022/11/22 17:22:28;;;;;;;11.00;3.40;;;;;;;6.89;100.00;99303.91;4982824;28;20034;-74
2022/11/22 17:24:53;;;;;;;5.57;3.53;;;;;;;6.86;100.00;99298.31;4985279;28;20269;-74
2022/11/22 17:27:19;;;;;;;3.88;2.60;;;;;;;6.77;100.00;99306.22;4988965;28;20061;-74
2022/11/22 17:29:44;;;;;;;3.72;2.22;;;;;;;6.81;100.00;99296.72;4992440;28;20037;-74
2022/11/22 17:32:13;;;;;;;4.15;2.20;;;;;;;6.90;100.00;99299.94;4986786;28;20046;-75
2022/11/22 17:34:38;;;;;;;3.35;2.65;;;;;;;6.88;100.00;99304.28;4992874;28;20033;-74
2022/11/22 17:37:09;;;;;;;4.07;3.67;;;;;;;6.86;100.00;99310.25;4991732;28;20091;-74
2022/11/22 17:39:35;;;;;;;4.10;3.80;;;;;;;6.77;100.00;99306.22;4992761;28;20041;-77
2022/11/22 17:42:00;;;;;;;4.05;2.83;;;;;;;6.85;100.00;99313.41;4991242;28;20029;-74
2022/11/22 17:44:26;;;;;;;3.67;3.28;;;;;;;6.91;100.00;99307.09;4990420;28;20520;-74
2022/11/22 17:46:52;;;;;;;3.42;2.30;;;;;;;6.83;100.00;99301.88;4990635;28;20038;-74
2022/11/22 17:49:17;;;;;;;8.25;5.35;;;;;;;6.83;100.00;99304.66;4994895;28;20080;-74
2022/11/22 17:51:45;;;;;;;3.42;2.88;;;;;;;6.88;100.00;99302.31;4995628;28;20141;-75
2022/11/22 17:54:10;;;;;;;3.88;2.50;;;;;;;6.88;100.00;99307.06;4989862;28;20065;-74
2022/11/22 17:56:36;;;;;;;4.65;3.63;;;;;;;6.90;100.00;99313.03;4994749;28;20109;-75
2022/11/22 17:59:02;;;;;;;6.68;5.07;;;;;;;6.84;100.00;99311.81;4991803;28;20046;-74